Time;durP1;ratioP1;P1;durP2;ratioP2;P2;SDS_P1;SDS_P2;PMS_P1;PMS_P2;Temp;Humidity;BMP_temperature;BMP_pressure;BME280_temperature;BME280_humidity;BME280_pressure;Samples;Min_cycle;Max_cycle;Signal;HPM_P1;HPM_P2
2023/04/23 00:00:07;;;;;;;;;;;8.50;99.90;;;;;;5019880;28;20610;-79
2023/04/23 00:02:33;;;;;;;;;;;8.50;99.90;;;;;;5006337;28;19921;-79
2023/04/23 00:05:03;;;;;;;;;;;8.50;99.90;;;;;;5012778;28;20026;-79
2023/04/23 00:07:29;;;;;;;;;;;8.30;99.90;;;;;;5001989;28;20377;-79
2023/04/23 00:09:56;;;;;;;;;;;8.40;99.90;;;;;;4995342;28;19960;-79
2023/04/23 00:12:21;;;;;;;;;;;8.40;99.90;;;;;;5018286;28;19932;-79
2023/04/23 00:14:47;;;;;;;;;;;8.30;99.90;;;;;;4995253;28;20299;-79
2023/04/23 00:17:12;;;;;;;;;;;8.30;99.90;;;;;;5003665;28;20873;-79
2023/04/23 00:19:38;;;;;;;;;;;8.20;99.90;;;;;;5006049;28;19920;-79
2023/04/23 00:22:04;;;;;;;;;;;8.30;99.90;;;;;;5005442;28;19952;-79
2023/04/23 00:24:30;;;;;;;;;;;8.30;99.90;;;;;;5022207;28;19990;-79
2023/04/23 00:26:56;;;;;;;;;;;8.20;99.90;;;;;;5020307;28;19928;-79
2023/04/23 00:29:21;;;;;;;;;;;8.20;99.90;;;;;;5001632;28;19923;-79
2023/04/23 00:31:47;;;;;;;;;;;8.10;99.90;;;;;;5002901;28;20031;-79
2023/04/23 00:34:13;;;;;;;;;;;8.20;99.90;;;;;;5000912;28;20731;-79
2023/04/23 00:36:38;;;;;;;;;;;8.10;99.90;;;;;;5000998;28;19928;-80
2023/04/23 00:39:04;;;;;;;;;;;8.20;99.90;;;;;;5003255;28;19921;-80
2023/04/23 00:41:30;;;;;;;;;;;8.10;99.90;;;;;;5006150;28;20408;-80
2023/04/23 00:43:56;;;;;;;;;;;8.00;99.90;;;;;;4979445;28;20516;-80
2023/04/23 00:46:23;;;;;;;;;;;8.10;99.90;;;;;;5001040;28;19951;-80
2023/04/23 00:48:49;;;;;;;;;;;8.10;99.90;;;;;;4996731;28;19939;-80
2023/04/23 00:51:15;;;;;;;;;;;8.10;99.90;;;;;;5001741;28;19928;-80
2023/04/23 00:53:40;;;;;;;;;;;8.10;99.90;;;;;;5012595;28;19921;-79
2023/04/23 00:56:07;;;;;;;;;;;8.20;99.90;;;;;;5014789;28;19977;-79
2023/04/23 00:58:33;;;;;;;;;;;8.20;99.90;;;;;;5006832;28;19928;-79
2023/04/23 01:01:01;;;;;;;;;;;8.10;99.90;;;;;;5027190;28;19924;-79
2023/04/23 01:03:28;;;;;;;;;;;8.20;99.90;;;;;;5016742;28;19990;-80
2023/04/23 01:05:54;;;;;;;;;;;8.20;99.90;;;;;;5022244;28;19982;-80
2023/04/23 01:08:20;;;;;;;;;;;8.30;99.90;;;;;;5038953;28;20362;-80
2023/04/23 01:10:46;;;;;;;;;;;8.20;99.90;;;;;;5016215;28;20984;-81
2023/04/23 01:13:12;;;;;;;;;;;8.30;99.90;;;;;;5021671;28;20440;-80
2023/04/23 01:15:38;;;;;;;;;;;8.20;99.90;;;;;;5019560;28;20019;-80
2023/04/23 01:18:06;;;;;;;;;;;8.30;99.90;;;;;;5014858;28;20426;-80
2023/04/23 01:20:32;;;;;;;;;;;8.20;99.90;;;;;;5016949;28;19917;-80
2023/04/23 01:22:58;;;;;;;;;;;8.10;99.90;;;;;;4995466;28;19921;-80
2023/04/23 01:25:23;;;;;;;;;;;8.10;99.90;;;;;;5019177;28;19927;-80
2023/04/23 01:27:49;;;;;;;;;;;8.20;99.90;;;;;;5016203;28;19917;-80
2023/04/23 01:30:15;;;;;;;;;;;8.20;99.90;;;;;;5033354;28;19921;-80
2023/04/23 01:32:41;;;;;;;;;;;8.20;99.90;;;;;;5017688;28;19928;-80
2023/04/23 01:35:07;;;;;;;;;;;8.10;99.90;;;;;;5015866;28;20397;-80
2023/04/23 01:37:34;;;;;;;;;;;8.20;99.90;;;;;;5018227;28;19921;-80
2023/04/23 01:39:59;;;;;;;;;;;8.10;99.90;;;;;;5034789;28;19928;-80
2023/04/23 01:42:25;;;;;;;;;;;8.20;99.90;;;;;;5019712;28;19920;-80
2023/04/23 01:44:51;;;;;;;;;;;8.30;99.90;;;;;;5018592;28;20557;-80
2023/04/23 01:47:18;;;;;;;;;;;8.40;99.90;;;;;;5017776;28;19928;-80
2023/04/23 01:49:43;;;;;;;;;;;8.40;99.90;;;;;;5008122;28;20016;-80
2023/04/23 01:52:09;;;;;;;;;;;8.40;99.90;;;;;;5029398;28;20281;-80
2023/04/23 01:54:34;;;;;;;;;;;8.30;99.90;;;;;;5010192;28;19958;-80
2023/04/23 01:57:00;;;;;;;;;;;8.30;99.90;;;;;;5009536;28;19924;-80
2023/04/23 01:59:25;;;;;;;;;;;8.30;99.90;;;;;;4998978;28;19934;-80
2023/04/23 02:01:51;;;;;;;;;;;8.40;99.90;;;;;;5011612;28;19920;-80
2023/04/23 02:04:18;;;;;;;;;;;8.40;99.90;;;;;;5017797;28;20081;-80
2023/04/23 02:06:45;;;;;;;;;;;8.40;99.90;;;;;;5019621;28;20267;-80
2023/04/23 02:09:11;;;;;;;;;;;8.30;99.90;;;;;;5037401;28;19924;-80
2023/04/23 02:11:36;;;;;;;;;;;8.30;99.90;;;;;;5036348;28;19921;-80
2023/04/23 02:14:02;;;;;;;;;;;8.20;99.90;;;;;;5017824;28;19994;-80
2023/04/23 02:16:28;;;;;;;;;;;8.20;99.90;;;;;;5014965;28;20428;-80
2023/04/23 02:18:54;;;;;;;;;;;8.20;99.90;;;;;;5035754;28;19921;-80
2023/04/23 02:21:20;;;;;;;;;;;8.00;99.90;;;;;;5017594;28;19917;-80
2023/04/23 02:23:45;;;;;;;;;;;7.90;99.90;;;;;;5022484;28;19921;-80
2023/04/23 02:26:11;;;;;;;;;;;8.10;99.90;;;;;;5033570;28;19929;-80
2023/04/23 02:28:37;;;;;;;;;;;8.00;99.90;;;;;;5034309;28;20043;-80
2023/04/23 02:31:03;;;;;;;;;;;8.00;99.90;;;;;;5019991;28;20714;-80
2023/04/23 02:33:29;;;;;;;;;;;7.90;99.90;;;;;;5019445;28;19935;-79
2023/04/23 02:35:54;;;;;;;;;;;8.00;99.90;;;;;;5033291;28;19921;-80
2023/04/23 02:38:20;;;;;;;;;;;8.00;99.90;;;;;;5018348;28;19921;-80
2023/04/23 02:40:45;;;;;;;;;;;7.80;99.90;;;;;;5029964;28;19927;-80
2023/04/23 02:43:11;;;;;;;;;;;7.90;99.90;;;;;;5019671;28;19920;-79
2023/04/23 02:45:36;;;;;;;;;;;7.60;99.90;;;;;;5034611;28;20354;-79
2023/04/23 02:48:03;;;;;;;;;;;7.50;99.90;;;;;;5018454;28;20656;-79
2023/04/23 02:50:28;;;;;;;;;;;7.50;99.90;;;;;;5018679;28;19929;-80
2023/04/23 02:52:54;;;;;;;;;;;7.60;99.90;;;;;;5017222;28;20313;-80
2023/04/23 02:55:19;;;;;;;;;;;7.60;99.90;;;;;;5012835;28;20023;-80
2023/04/23 02:57:45;;;;;;;;;;;7.60;99.90;;;;;;5016855;28;20251;-80
2023/04/23 03:00:11;;;;;;;;;;;7.60;99.90;;;;;;5017113;28;20031;-80
2023/04/23 03:02:37;;;;;;;;;;;7.70;99.90;;;;;;5019030;28;19923;-80
2023/04/23 03:05:03;;;;;;;;;;;7.60;99.90;;;;;;5021912;28;20659;-80
2023/04/23 03:07:29;;;;;;;;;;;7.60;99.90;;;;;;5040134;28;20799;-80
2023/04/23 03:09:54;;;;;;;;;;;7.60;99.90;;;;;;5022565;28;19921;-80
2023/04/23 03:12:20;;;;;;;;;;;7.70;99.90;;;;;;5022821;28;20596;-79
2023/04/23 03:14:45;;;;;;;;;;;7.70;99.90;;;;;;5018756;28;19928;-79
2023/04/23 03:17:11;;;;;;;;;;;7.70;99.90;;;;;;5022658;28;19970;-79
2023/04/23 03:19:36;;;;;;;;;;;7.80;99.90;;;;;;5040230;28;20011;-79
2023/04/23 03:22:04;;;;;;;;;;;7.70;99.90;;;;;;5040173;28;20734;-80
2023/04/23 03:24:31;;;;;;;;;;;7.70;99.90;;;;;;5022066;28;19975;-80
2023/04/23 03:27:03;;;;;;;;;;;7.70;99.90;;;;;;5021149;28;19924;-79
2023/04/23 03:29:29;;;;;;;;;;;7.60;99.90;;;;;;5023468;28;19925;-79
2023/04/23 03:31:55;;;;;;;;;;;7.70;99.90;;;;;;5024322;28;19928;-79
2023/04/23 03:34:20;;;;;;;;;;;7.60;99.90;;;;;;5020574;28;19921;-80
2023/04/23 03:36:47;;;;;;;;;;;7.50;99.90;;;;;;5019489;28;19927;-80
2023/04/23 03:39:13;;;;;;;;;;;7.40;99.90;;;;;;5022282;28;19944;-80
2023/04/23 03:41:39;;;;;;;;;;;7.50;99.90;;;;;;5005767;28;20280;-80
2023/04/23 03:44:04;;;;;;;;;;;7.50;99.90;;;;;;5039415;28;19928;-80
2023/04/23 03:46:30;;;;;;;;;;;7.50;99.90;;;;;;5038302;28;19952;-79
2023/04/23 03:48:56;;;;;;;;;;;7.50;99.90;;;;;;5019259;28;21601;-80
2023/04/23 03:51:21;;;;;;;;;;;7.60;99.90;;;;;;5038915;28;19921;-80
2023/04/23 03:53:47;;;;;;;;;;;7.60;99.90;;;;;;5021009;28;20400;-79
2023/04/23 03:56:13;;;;;;;;;;;7.70;99.90;;;;;;5021318;28;19972;-80
2023/04/23 03:58:38;;;;;;;;;;;7.70;99.90;;;;;;5021085;28;19925;-80
2023/04/23 04:01:04;;;;;;;;;;;7.50;99.90;;;;;;5021312;28;19928;-80
2023/04/23 04:03:30;;;;;;;;;;;7.60;99.90;;;;;;5018774;28;19920;-80
2023/04/23 04:05:55;;;;;;;;;;;7.50;99.90;;;;;;5021945;28;20362;-79
2023/04/23 04:08:21;;;;;;;;;;;7.50;99.90;;;;;;5038839;28;19920;-80
2023/04/23 04:10:46;;;;;;;;;;;7.60;99.90;;;;;;5019654;28;20382;-79
2023/04/23 04:13:14;;;;;;;;;;;7.50;99.90;;;;;;5021427;28;19940;-80
2023/04/23 04:15:40;;;;;;;;;;;7.60;99.90;;;;;;5005646;28;19925;-79
2023/04/23 04:18:06;;;;;;;;;;;7.60;99.90;;;;;;5012926;28;20252;-79
2023/04/23 04:20:31;;;;;;;;;;;7.50;99.90;;;;;;5027693;28;19920;-79
2023/04/23 04:22:57;;;;;;;;;;;7.50;99.90;;;;;;5016658;28;19920;-80
2023/04/23 04:25:23;;;;;;;;;;;7.40;99.90;;;;;;5031377;28;20039;-79
2023/04/23 04:27:48;;;;;;;;;;;7.60;99.90;;;;;;5009336;28;19956;-79
2023/04/23 04:30:14;;;;;;;;;;;7.60;99.90;;;;;;5014042;28;19916;-80
2023/04/23 04:32:41;;;;;;;;;;;7.60;99.90;;;;;;5009659;28;20011;-80
2023/04/23 04:35:07;;;;;;;;;;;7.50;99.90;;;;;;5018160;28;19967;-79
2023/04/23 04:37:33;;;;;;;;;;;7.60;99.90;;;;;;5017562;28;19921;-80
2023/04/23 04:40:00;;;;;;;;;;;7.70;99.90;;;;;;5028316;28;19931;-78
2023/04/23 04:42:26;;;;;;;;;;;7.80;99.90;;;;;;5017325;28;20281;-80
2023/04/23 04:44:51;;;;;;;;;;;7.80;99.90;;;;;;5016280;28;19921;-80
2023/04/23 04:47:17;;;;;;;;;;;7.80;99.90;;;;;;5016845;28;20847;-79
2023/04/23 04:49:43;;;;;;;;;;;8.00;99.90;;;;;;5018356;28;19921;-80
2023/04/23 04:52:09;;;;;;;;;;;8.00;99.90;;;;;;5018042;28;19995;-80
2023/04/23 04:54:35;;;;;;;;;;;8.00;99.90;;;;;;5036929;28;19921;-80
2023/04/23 04:57:01;;;;;;;;;;;8.20;99.90;;;;;;5029533;28;20436;-80
2023/04/23 04:59:27;;;;;;;;;;;8.20;99.90;;;;;;5020598;28;19920;-80
2023/04/23 05:01:53;;;;;;;;;;;8.20;99.90;;;;;;5022468;28;20281;-79
2023/04/23 05:04:18;;;;;;;;;;;8.30;99.90;;;;;;5037784;28;19921;-80
2023/04/23 05:06:44;;;;;;;;;;;8.50;99.90;;;;;;5018062;28;20027;-80
2023/04/23 05:09:10;;;;;;;;;;;8.50;99.90;;;;;;5034303;28;20032;-79
2023/04/23 05:11:35;;;;;;;;;;;8.50;99.90;;;;;;5022801;28;19921;-79
2023/04/23 05:14:01;;;;;;;;;;;8.50;99.90;;;;;;5021798;28;19921;-80
2023/04/23 05:16:26;;;;;;;;;;;8.70;99.90;;;;;;5038612;28;19928;-79
2023/04/23 05:18:52;;;;;;;;;;;8.70;99.90;;;;;;5020716;28;19920;-80
2023/04/23 05:21:18;;;;;;;;;;;8.70;99.90;;;;;;5021071;28;20360;-80
2023/04/23 05:23:43;;;;;;;;;;;8.80;99.90;;;;;;5040052;28;20383;-80
2023/04/23 05:26:09;;;;;;;;;;;8.80;99.90;;;;;;5037509;28;19921;-80
2023/04/23 05:28:35;;;;;;;;;;;9.00;99.90;;;;;;5036549;28;20293;-80
2023/04/23 05:31:01;;;;;;;;;;;9.00;99.90;;;;;;5019436;28;19920;-80
2023/04/23 05:33:27;;;;;;;;;;;9.10;99.90;;;;;;5022420;28;20028;-80
2023/04/23 05:35:56;;;;;;;;;;;9.20;99.90;;;;;;5021333;28;19921;-80
2023/04/23 05:38:21;;;;;;;;;;;9.20;99.90;;;;;;5019191;28;19928;-80
2023/04/23 05:40:47;;;;;;;;;;;9.20;99.90;;;;;;5019059;28;20293;-80
2023/04/23 05:43:12;;;;;;;;;;;9.20;99.90;;;;;;5038030;28;19927;-80
2023/04/23 05:45:38;;;;;;;;;;;9.30;99.90;;;;;;5018231;28;19929;-79
2023/04/23 05:48:03;;;;;;;;;;;9.30;99.90;;;;;;5019030;28;19929;-80
2023/04/23 05:50:29;;;;;;;;;;;9.20;99.90;;;;;;5019345;28;19935;-80
2023/04/23 05:52:55;;;;;;;;;;;9.30;99.90;;;;;;5021534;28;20015;-80
2023/04/23 05:55:22;;;;;;;;;;;9.40;99.90;;;;;;5019706;28;20375;-80
2023/04/23 05:57:48;;;;;;;;;;;9.50;99.90;;;;;;5036459;28;20506;-79
2023/04/23 06:00:14;;;;;;;;;;;9.90;99.90;;;;;;5019929;28;20433;-80
2023/04/23 06:02:40;;;;;;;;;;;10.30;99.90;;;;;;5022704;28;19921;-80
2023/04/23 06:05:06;;;;;;;;;;;10.70;99.90;;;;;;5023363;28;20365;-80
2023/04/23 06:07:32;;;;;;;;;;;10.80;99.90;;;;;;5017418;28;20378;-81
2023/04/23 06:09:58;;;;;;;;;;;10.90;99.90;;;;;;5019865;28;20417;-80
2023/04/23 06:12:23;;;;;;;;;;;10.90;99.90;;;;;;5038267;28;19927;-80
2023/04/23 06:14:49;;;;;;;;;;;10.80;99.90;;;;;;5020817;28;20000;-80
2023/04/23 06:17:15;;;;;;;;;;;11.20;99.90;;;;;;5019298;28;19929;-80
2023/04/23 06:19:40;;;;;;;;;;;11.60;99.90;;;;;;5018597;28;20375;-80
2023/04/23 06:22:06;;;;;;;;;;;11.90;99.90;;;;;;5019266;28;20320;-80
2023/04/23 06:24:32;;;;;;;;;;;12.40;99.90;;;;;;5018789;28;19921;-80
2023/04/23 06:26:57;;;;;;;;;;;12.70;99.90;;;;;;5022248;28;19928;-81
2023/04/23 06:29:23;;;;;;;;;;;13.00;99.90;;;;;;5017890;28;19967;-81
2023/04/23 06:31:49;;;;;;;;;;;13.10;99.90;;;;;;5020452;28;19928;-81
2023/04/23 06:34:14;;;;;;;;;;;12.90;99.90;;;;;;5036759;28;19920;-81
2023/04/23 06:36:42;;;;;;;;;;;13.00;99.90;;;;;;5019212;28;19917;-81
2023/04/23 06:39:07;;;;;;;;;;;13.20;99.90;;;;;;5035767;28;20289;-80
2023/04/23 06:41:33;;;;;;;;;;;13.40;99.90;;;;;;5020923;28;19920;-80
2023/04/23 06:43:59;;;;;;;;;;;13.60;99.90;;;;;;5021805;28;19921;-80
2023/04/23 06:46:24;;;;;;;;;;;13.50;99.90;;;;;;5019740;28;19927;-81
2023/04/23 06:48:50;;;;;;;;;;;13.50;99.90;;;;;;5014758;28;19921;-79
2023/04/23 06:51:16;;;;;;;;;;;13.60;99.90;;;;;;5039580;28;19927;-80
2023/04/23 06:53:41;;;;;;;;;;;13.60;99.90;;;;;;5034208;28;19998;-80
2023/04/23 06:56:07;;;;;;;;;;;13.90;99.90;;;;;;5018003;28;20416;-80
2023/04/23 06:58:33;;;;;;;;;;;13.90;99.90;;;;;;5038376;28;19920;-81
2023/04/23 07:00:59;;;;;;;;;;;13.80;99.90;;;;;;5033446;28;20619;-81
2023/04/23 07:03:26;;;;;;;;;;;13.90;99.90;;;;;;5029670;28;20456;-81
2023/04/23 07:05:52;;;;;;;;;;;14.20;99.90;;;;;;5018997;28;19928;-80
2023/04/23 07:08:18;;;;;;;;;;;14.40;99.90;;;;;;5039291;28;20576;-76
2023/04/23 07:10:50;;;;;;;;;;;14.50;99.90;;;;;;5030900;28;19929;-80
2023/04/23 07:13:16;;;;;;;;;;;14.00;99.90;;;;;;5019041;28;19928;-82
2023/04/23 07:15:41;;;;;;;;;;;13.80;99.90;;;;;;5016717;28;19921;-82
2023/04/23 07:18:07;;;;;;;;;;;13.50;99.90;;;;;;5020246;28;19921;-80
2023/04/23 07:20:33;;;;;;;;;;;13.50;99.90;;;;;;5030870;28;20690;-81
2023/04/23 07:22:58;;;;;;;;;;;13.40;99.90;;;;;;5020608;28;20333;-83
2023/04/23 07:25:25;;;;;;;;;;;13.10;99.90;;;;;;5017576;28;19921;-81
2023/04/23 07:27:52;;;;;;;;;;;13.00;99.90;;;;;;5038057;28;19920;-80
2023/04/23 07:30:18;;;;;;;;;;;12.90;99.90;;;;;;5018570;28;20084;-80
2023/04/23 07:32:43;;;;;;;;;;;12.80;99.90;;;;;;5017186;28;19921;-81
2023/04/23 07:35:10;;;;;;;;;;;12.80;99.90;;;;;;5017794;28;19920;-81
2023/04/23 07:37:36;;;;;;;;;;;12.70;99.90;;;;;;5016647;28;19963;-80
2023/04/23 07:40:01;;;;;;;;;;;12.60;99.90;;;;;;5018017;28;20211;-80
2023/04/23 07:42:27;;;;;;;;;;;12.60;99.90;;;;;;5035306;28;19921;-80
2023/04/23 07:44:53;;;;;;;;;;;12.60;99.90;;;;;;5016385;28;19928;-81
2023/04/23 07:47:18;;;;;;;;;;;12.70;99.90;;;;;;5017352;28;20427;-80
2023/04/23 07:49:44;;;;;;;;;;;12.80;99.90;;;;;;4993734;28;19983;-80
2023/04/23 07:52:09;;;;;;;;;;;12.80;99.90;;;;;;5012269;28;19920;-81
2023/04/23 07:54:35;;;;;;;;;;;12.70;99.90;;;;;;5013200;28;19924;-79
2023/04/23 07:57:01;;;;;;;;;;;12.70;99.90;;;;;;5011284;28;19924;-79
2023/04/23 07:59:28;;;;;;;;;;;12.60;99.90;;;;;;5016709;28;20626;-80
2023/04/23 08:01:54;;;;;;;;;;;12.70;99.90;;;;;;5027106;28;20019;-79
2023/04/23 08:04:19;;;;;;;;;;;13.30;99.90;;;;;;5003998;28;20372;-80
2023/04/23 08:06:45;;;;;;;;;;;13.80;99.90;;;;;;5004696;28;19995;-79
2023/04/23 08:09:10;;;;;;;;;;;14.10;99.90;;;;;;5013104;28;19995;-80
2023/04/23 08:11:36;;;;;;;;;;;14.20;99.90;;;;;;5030512;28;19921;-80
2023/04/23 08:14:02;;;;;;;;;;;14.50;99.90;;;;;;5023201;28;20381;-79
2023/04/23 08:16:27;;;;;;;;;;;14.60;99.90;;;;;;5015874;28;19947;-80
2023/04/23 08:18:53;;;;;;;;;;;14.80;99.90;;;;;;5039108;28;19924;-80
2023/04/23 08:21:19;;;;;;;;;;;15.00;99.90;;;;;;5019835;28;19932;-80
2023/04/23 08:23:45;;;;;;;;;;;15.10;99.90;;;;;;5026902;28;19982;-79
2023/04/23 08:26:10;;;;;;;;;;;15.30;99.90;;;;;;5019396;28;19921;-80
2023/04/23 08:28:36;;;;;;;;;;;15.30;99.90;;;;;;5022398;28;20476;-79
2023/04/23 08:31:01;;;;;;;;;;;15.40;99.90;;;;;;5020996;28;19983;-80
2023/04/23 08:33:27;;;;;;;;;;;15.80;99.90;;;;;;5018254;28;19929;-80
2023/04/23 08:35:53;;;;;;;;;;;16.10;99.90;;;;;;5019005;28;19921;-80
2023/04/23 08:38:18;;;;;;;;;;;16.00;99.90;;;;;;5015833;28;19929;-80
2023/04/23 08:40:44;;;;;;;;;;;16.00;99.90;;;;;;5016779;28;19982;-79
2023/04/23 08:43:14;;;;;;;;;;;15.90;99.90;;;;;;5015137;28;19917;-81
2023/04/23 08:45:40;;;;;;;;;;;16.10;99.90;;;;;;5018407;28;19923;-80
2023/04/23 08:48:06;;;;;;;;;;;16.50;99.90;;;;;;5017202;28;19921;-80
2023/04/23 08:50:32;;;;;;;;;;;16.60;99.90;;;;;;5030796;28;19925;-80
2023/04/23 08:52:57;;;;;;;;;;;16.50;99.90;;;;;;5015210;28;20285;-80
2023/04/23 08:55:23;;;;;;;;;;;16.60;99.90;;;;;;5002021;28;20548;-80
2023/04/23 08:57:49;;;;;;;;;;;16.90;99.90;;;;;;5018675;28;20525;-82
2023/04/23 09:00:16;;;;;;;;;;;17.20;99.90;;;;;;5018800;28;19920;-80
2023/04/23 09:02:45;;;;;;;;;;;17.30;99.90;;;;;;5017382;28;20563;-79
2023/04/23 09:05:11;;;;;;;;;;;17.20;99.90;;;;;;5017877;28;19921;-78
2023/04/23 09:07:36;;;;;;;;;;;17.50;99.90;;;;;;5031864;28;19921;-80
2023/04/23 09:10:03;;;;;;;;;;;17.70;99.90;;;;;;5016709;28;19921;-79
2023/04/23 09:12:28;;;;;;;;;;;17.60;99.90;;;;;;5018233;28;19925;-80
2023/04/23 09:14:55;;;;;;;;;;;17.50;99.90;;;;;;5020767;28;19936;-83
2023/04/23 09:17:22;;;;;;;;;;;17.60;99.90;;;;;;5020491;28;20373;-79
2023/04/23 09:19:49;;;;;;;;;;;17.80;99.90;;;;;;4994770;28;19932;-81
2023/04/23 09:22:16;;;;;;;;;;;17.90;99.90;;;;;;5024830;28;20151;-78
2023/04/23 09:24:42;;;;;;;;;;;17.80;99.90;;;;;;5017239;28;19920;-78
2023/04/23 09:27:08;;;;;;;;;;;17.60;99.90;;;;;;5002098;28;19959;-79
2023/04/23 09:29:33;;;;;;;;;;;18.10;99.90;;;;;;5003291;28;20023;-79
2023/04/23 09:32:07;;;;;;;;;;;18.30;99.90;;;;;;5013460;28;19928;-80
2023/04/23 09:34:33;;;;;;;;;;;18.40;99.90;;;;;;5006356;28;19929;-80
2023/04/23 09:36:59;;;;;;;;;;;18.40;99.90;;;;;;5011547;28;19954;-79
2023/04/23 09:39:25;;;;;;;;;;;19.00;99.90;;;;;;5017658;28;19986;-80
2023/04/23 09:41:52;;;;;;;;;;;19.20;99.90;;;;;;5019620;28;19920;-80
2023/04/23 09:44:18;;;;;;;;;;;19.40;99.90;;;;;;5001211;28;19928;-78
2023/04/23 09:46:44;;;;;;;;;;;19.50;99.90;;;;;;5017807;28;20326;-79
2023/04/23 09:49:10;;;;;;;;;;;19.50;99.90;;;;;;4991903;28;19948;-79
2023/04/23 09:51:40;;;;;;;;;;;19.10;99.90;;;;;;4998106;28;19947;-79
2023/04/23 09:54:22;;;;;;;;;;;19.00;99.90;;;;;;5006219;28;19920;-78
2023/04/23 09:56:48;;;;;;;;;;;18.50;99.90;;;;;;5010752;28;20422;-79
2023/04/23 09:59:21;;;;;;;;;;;18.40;99.90;;;;;;4995986;28;19920;-79
2023/04/23 10:01:46;;;;;;;;;;;18.90;99.90;;;;;;5016891;28;19921;-80
2023/04/23 10:04:17;;;;;;;;;;;19.00;99.90;;;;;;5009640;28;20639;-79
2023/04/23 10:06:42;;;;;;;;;;;19.40;99.90;;;;;;4996180;28;19921;-79
2023/04/23 10:09:08;;;;;;;;;;;19.60;99.90;;;;;;4998509;28;20239;-78
2023/04/23 10:11:34;;;;;;;;;;;19.40;99.90;;;;;;4996189;28;19916;-79
2023/04/23 10:14:00;;;;;;;;;;;19.70;99.90;;;;;;5013049;28;19983;-79
2023/04/23 10:16:26;;;;;;;;;;;18.60;99.90;;;;;;5015689;28;19982;-79
2023/04/23 10:18:54;;;;;;;;;;;18.40;99.90;;;;;;5023862;28;19992;-78
2023/04/23 10:21:23;;;;;;;;;;;19.40;99.90;;;;;;5026707;28;19932;-78
2023/04/23 10:23:50;;;;;;;;;;;19.70;99.90;;;;;;4991189;28;19925;-79
2023/04/23 10:26:16;;;;;;;;;;;19.40;99.90;;;;;;4992750;28;20067;-78
2023/04/23 10:28:45;;;;;;;;;;;19.70;99.90;;;;;;4994310;28;20344;-79
2023/04/23 10:31:11;;;;;;;;;;;19.80;99.90;;;;;;5012529;28;19928;-78
2023/04/23 10:33:37;;;;;;;;;;;19.40;99.90;;;;;;5003891;28;19921;-79
2023/04/23 10:36:02;;;;;;;;;;;19.00;99.90;;;;;;4980942;28;19991;-79
2023/04/23 10:38:28;;;;;;;;;;;18.80;99.90;;;;;;5001138;28;20643;-79
2023/04/23 10:40:55;;;;;;;;;;;19.20;99.90;;;;;;4997004;28;20011;-79
2023/04/23 10:43:21;;;;;;;;;;;19.60;99.90;;;;;;4979952;28;20031;-79
2023/04/23 10:45:48;;;;;;;;;;;19.90;99.90;;;;;;5002292;28;20113;-78
2023/04/23 10:48:14;;;;;;;;;;;20.20;99.90;;;;;;5009393;28;19921;-78
2023/04/23 10:50:40;;;;;;;;;;;19.90;99.90;;;;;;4994955;28;19927;-79
2023/04/23 10:53:16;;;;;;;;;;;19.10;99.90;;;;;;5014853;28;20035;-78
2023/04/23 10:55:42;;;;;;;;;;;19.10;99.90;;;;;;5004270;28;20085;-78
2023/04/23 10:58:08;;;;;;;;;;;18.80;99.90;;;;;;5014149;28;20806;-78
2023/04/23 11:00:39;;;;;;;;;;;18.60;99.90;;;;;;4994082;28;19926;-79
2023/04/23 11:03:25;;;;;;;;;;;19.20;99.90;;;;;;5012893;28;20649;-77
2023/04/23 11:05:51;;;;;;;;;;;18.90;99.90;;;;;;4990534;28;19920;-78
2023/04/23 11:08:16;;;;;;;;;;;19.30;99.90;;;;;;4993417;28;20366;-79
2023/04/23 11:10:50;;;;;;;;;;;18.70;99.90;;;;;;5021973;28;19921;-77
2023/04/23 11:13:21;;;;;;;;;;;18.10;99.90;;;;;;5032718;28;19920;-78
2023/04/23 11:15:46;;;;;;;;;;;18.50;99.90;;;;;;5012985;28;20441;-78
2023/04/23 11:18:12;;;;;;;;;;;18.70;99.90;;;;;;5031125;28;19921;-77
2023/04/23 11:20:37;;;;;;;;;;;19.40;99.90;;;;;;5025966;28;20358;-78
2023/04/23 11:23:04;;;;;;;;;;;19.10;99.90;;;;;;5029698;28;20432;-79
2023/04/23 11:25:30;;;;;;;;;;;19.50;99.90;;;;;;5024077;28;19917;-79
2023/04/23 11:27:57;;;;;;;;;;;19.90;99.90;;;;;;5005293;28;19920;-78
2023/04/23 11:30:26;;;;;;;;;;;19.60;99.90;;;;;;5041019;28;19917;-77
2023/04/23 11:32:53;;;;;;;;;;;19.40;99.90;;;;;;5020576;28;20027;-80
2023/04/23 11:35:20;;;;;;;;;;;20.00;99.90;;;;;;5036440;28;19925;-78
2023/04/23 11:37:47;;;;;;;;;;;19.90;99.90;;;;;;5036162;28;19928;-78
2023/04/23 11:40:17;;;;;;;;;;;19.80;99.90;;;;;;5032410;28;20393;-80
2023/04/23 11:42:45;;;;;;;;;;;19.80;99.90;;;;;;5018290;28;20671;-78
2023/04/23 11:45:14;;;;;;;;;;;19.90;99.90;;;;;;5018721;28;20019;-78
2023/04/23 11:47:40;;;;;;;;;;;19.50;99.90;;;;;;5005597;28;19920;-77
2023/04/23 11:50:06;;;;;;;;;;;19.70;99.90;;;;;;5019312;28;19928;-78
2023/04/23 11:52:33;;;;;;;;;;;20.10;99.90;;;;;;5037168;28;19948;-78
2023/04/23 11:55:01;;;;;;;;;;;20.00;99.90;;;;;;5032081;28;19920;-77
2023/04/23 11:57:27;;;;;;;;;;;19.30;99.90;;;;;;5016957;28;20547;-78
2023/04/23 11:59:52;;;;;;;;;;;20.00;99.90;;;;;;5017348;28;19928;-78
2023/04/23 12:02:18;;;;;;;;;;;20.40;99.90;;;;;;5033826;28;19924;-79
2023/04/23 12:04:44;;;;;;;;;;;20.00;99.90;;;;;;5017136;28;20063;-78
2023/04/23 12:07:09;;;;;;;;;;;19.40;99.90;;;;;;5025117;28;19960;-77
2023/04/23 12:09:36;;;;;;;;;;;20.40;99.90;;;;;;5010715;28;19929;-78
2023/04/23 12:12:02;;;;;;;;;;;20.90;99.90;;;;;;5032560;28;20005;-78
2023/04/23 12:14:29;;;;;;;;;;;20.60;99.90;;;;;;5009599;28;20023;-78
2023/04/23 12:16:55;;;;;;;;;;;20.80;99.90;;;;;;5017794;28;20419;-78
2023/04/23 12:19:27;;;;;;;;;;;20.70;99.90;;;;;;5019744;28;19920;-79
2023/04/23 12:21:56;;;;;;;;;;;20.20;99.90;;;;;;5021151;28;19929;-79
2023/04/23 12:24:26;;;;;;;;;;;20.20;99.90;;;;;;5022306;28;19920;-78
2023/04/23 12:26:53;;;;;;;;;;;20.00;99.90;;;;;;5019600;28;19990;-78
2023/04/23 12:29:19;;;;;;;;;;;19.70;99.90;;;;;;5002926;28;19932;-78
2023/04/23 12:31:48;;;;;;;;;;;19.80;99.90;;;;;;5033035;28;19929;-79
2023/04/23 12:34:16;;;;;;;;;;;20.00;99.90;;;;;;5018862;28;19921;-78
2023/04/23 12:36:46;;;;;;;;;;;19.90;99.90;;;;;;5035182;28;19928;-77
2023/04/23 12:39:19;;;;;;;;;;;19.80;99.90;;;;;;5032907;28;19921;-79
2023/04/23 12:41:45;;;;;;;;;;;19.80;99.90;;;;;;5037389;28;19920;-78
2023/04/23 12:44:10;;;;;;;;;;;19.60;99.90;;;;;;5032130;28;19924;-78
2023/04/23 12:46:36;;;;;;;;;;;19.40;99.90;;;;;;5036070;28;19920;-79
2023/04/23 12:49:01;;;;;;;;;;;19.00;99.90;;;;;;5033557;28;20604;-78
2023/04/23 12:51:27;;;;;;;;;;;19.00;99.90;;;;;;5017905;28;19928;-79
2023/04/23 12:53:52;;;;;;;;;;;18.90;99.90;;;;;;5036232;28;19932;-78
2023/04/23 12:56:18;;;;;;;;;;;18.90;99.90;;;;;;5031009;28;19924;-78
2023/04/23 12:58:45;;;;;;;;;;;19.00;99.90;;;;;;5020092;28;19959;-78
2023/04/23 13:01:13;;;;;;;;;;;19.00;99.90;;;;;;5038682;28;19968;-79
2023/04/23 13:03:38;;;;;;;;;;;19.10;99.90;;;;;;5038871;28;20381;-79
2023/04/23 13:06:06;;;;;;;;;;;19.20;99.90;;;;;;5019777;28;19933;-81
2023/04/23 13:08:32;;;;;;;;;;;19.00;99.90;;;;;;5037955;28;19920;-80
2023/04/23 13:10:58;;;;;;;;;;;18.90;99.90;;;;;;5022445;28;20151;-77
2023/04/23 13:13:23;;;;;;;;;;;19.10;99.90;;;;;;5018882;28;19990;-77
2023/04/23 13:15:49;;;;;;;;;;;19.20;99.90;;;;;;5015060;28;19925;-76
2023/04/23 13:18:15;;;;;;;;;;;19.20;99.90;;;;;;5033740;28;20394;-76
2023/04/23 13:20:42;;;;;;;;;;;19.40;99.90;;;;;;5035434;28;19920;-78
2023/04/23 13:23:07;;;;;;;;;;;19.20;99.90;;;;;;5017709;28;19916;-77
2023/04/23 13:25:33;;;;;;;;;;;19.00;99.90;;;;;;5019140;28;19920;-77
2023/04/23 13:27:59;;;;;;;;;;;19.20;99.90;;;;;;5018120;28;19928;-77
2023/04/23 13:30:25;;;;;;;;;;;19.20;99.90;;;;;;5034060;28;19921;-77
2023/04/23 13:32:50;;;;;;;;;;;19.60;99.90;;;;;;5039213;28;19932;-77
2023/04/23 13:35:16;;;;;;;;;;;19.50;99.90;;;;;;5016715;28;20007;-78
2023/04/23 13:37:42;;;;;;;;;;;19.50;99.90;;;;;;5037237;28;19921;-77
2023/04/23 13:40:07;;;;;;;;;;;19.50;99.90;;;;;;5032554;28;20274;-77
2023/04/23 13:42:34;;;;;;;;;;;19.40;99.90;;;;;;5031972;28;19952;-77
2023/04/23 13:45:01;;;;;;;;;;;19.20;99.90;;;;;;5004802;28;19982;-78
2023/04/23 13:47:30;;;;;;;;;;;19.10;99.90;;;;;;5011378;28;19928;-78
2023/04/23 13:49:55;;;;;;;;;;;19.00;99.90;;;;;;5025210;28;20301;-78
2023/04/23 13:52:21;;;;;;;;;;;18.80;99.90;;;;;;5028462;28;19920;-79
2023/04/23 13:54:47;;;;;;;;;;;18.80;99.90;;;;;;5034085;28;20835;-80
2023/04/23 13:57:13;;;;;;;;;;;18.80;99.90;;;;;;5018328;28;19925;-78
2023/04/23 13:59:39;;;;;;;;;;;18.80;99.90;;;;;;5004276;28;20430;-78
2023/04/23 14:02:05;;;;;;;;;;;19.00;99.90;;;;;;4992784;28;19921;-79
2023/04/23 14:04:31;;;;;;;;;;;19.10;99.90;;;;;;5012489;28;19971;-78
2023/04/23 14:06:56;;;;;;;;;;;19.10;99.90;;;;;;5016378;28;19920;-78
2023/04/23 14:09:22;;;;;;;;;;;19.30;99.90;;;;;;5031223;28;20324;-78
2023/04/23 14:11:48;;;;;;;;;;;19.30;99.90;;;;;;5017914;28;19955;-77
2023/04/23 14:14:13;;;;;;;;;;;19.00;99.90;;;;;;5019927;28;20378;-77
2023/04/23 14:16:39;;;;;;;;;;;18.90;99.90;;;;;;5010249;28;20011;-78